sensor_id;sensor_type;location;lat;lon;timestamp;P1;durP1;ratioP1;P2;durP2;ratioP2
56005;SDS011;41888;44.696;10.522;2023-04-24T00:01:21;2.47;;;1.20;;
56005;SDS011;41888;44.696;10.522;2023-04-24T00:03:47;5.25;;;1.75;;
56005;SDS011;41888;44.696;10.522;2023-04-24T00:06:13;3.58;;;1.67;;
56005;SDS011;41888;44.696;10.522;2023-04-24T00:08:41;3.13;;;1.65;;
56005;SDS011;41888;44.696;10.522;2023-04-24T00:11:08;3.30;;;1.80;;
56005;SDS011;41888;44.696;10.522;2023-04-24T00:13:34;3.95;;;1.80;;
56005;SDS011;41888;44.696;10.522;2023-04-24T00:16:00;5.65;;;2.08;;
56005;SDS011;41888;44.696;10.522;2023-04-24T00:18:27;4.55;;;1.83;;
56005;SDS011;41888;44.696;10.522;2023-04-24T00:20:53;5.50;;;1.88;;
56005;SDS011;41888;44.696;10.522;2023-04-24T00:23:19;4.53;;;1.73;;
56005;SDS011;41888;44.696;10.522;2023-04-24T00:25:45;2.70;;;1.40;;
56005;SDS011;41888;44.696;10.522;2023-04-24T00:28:11;3.22;;;2.35;;
56005;SDS011;41888;44.696;10.522;2023-04-24T00:30:37;3.10;;;1.70;;
56005;SDS011;41888;44.696;10.522;2023-04-24T00:33:04;4.57;;;1.90;;
56005;SDS011;41888;44.696;10.522;2023-04-24T00:35:31;6.82;;;2.13;;
56005;SDS011;41888;44.696;10.522;2023-04-24T00:37:57;4.68;;;2.22;;
56005;SDS011;41888;44.696;10.522;2023-04-24T00:40:23;5.03;;;1.88;;
56005;SDS011;41888;44.696;10.522;2023-04-24T00:42:49;3.63;;;2.10;;
56005;SDS011;41888;44.696;10.522;2023-04-24T00:45:15;4.07;;;2.30;;
56005;SDS011;41888;44.696;10.522;2023-04-24T00:47:42;3.10;;;1.98;;
56005;SDS011;41888;44.696;10.522;2023-04-24T00:50:08;4.75;;;2.10;;
56005;SDS011;41888;44.696;10.522;2023-04-24T00:52:36;2.97;;;1.80;;
56005;SDS011;41888;44.696;10.522;2023-04-24T00:55:02;3.70;;;2.33;;
56005;SDS011;41888;44.696;10.522;2023-04-24T00:57:28;2.67;;;2.10;;
56005;SDS011;41888;44.696;10.522;2023-04-24T00:59:55;4.65;;;2.17;;
56005;SDS011;41888;44.696;10.522;2023-04-24T01:02:21;5.30;;;2.80;;
56005;SDS011;41888;44.696;10.522;2023-04-24T01:04:50;6.63;;;3.15;;
56005;SDS011;41888;44.696;10.522;2023-04-24T01:07:17;5.30;;;3.13;;
56005;SDS011;41888;44.696;10.522;2023-04-24T01:09:47;6.20;;;3.85;;
56005;SDS011;41888;44.696;10.522;2023-04-24T01:12:15;8.48;;;3.60;;
56005;SDS011;41888;44.696;10.522;2023-04-24T01:14:42;5.38;;;3.72;;
56005;SDS011;41888;44.696;10.522;2023-04-24T01:17:09;7.40;;;4.90;;
56005;SDS011;41888;44.696;10.522;2023-04-24T01:19:35;7.50;;;3.53;;
56005;SDS011;41888;44.696;10.522;2023-04-24T01:22:02;9.25;;;4.40;;
56005;SDS011;41888;44.696;10.522;2023-04-24T01:24:33;7.40;;;5.15;;
56005;SDS011;41888;44.696;10.522;2023-04-24T01:27:00;10.45;;;4.60;;
56005;SDS011;41888;44.696;10.522;2023-04-24T01:29:26;6.82;;;4.75;;
56005;SDS011;41888;44.696;10.522;2023-04-24T01:31:52;9.20;;;6.10;;
56005;SDS011;41888;44.696;10.522;2023-04-24T01:34:20;8.43;;;5.25;;
56005;SDS011;41888;44.696;10.522;2023-04-24T01:36:46;11.70;;;6.10;;
56005;SDS011;41888;44.696;10.522;2023-04-24T01:39:13;9.60;;;5.43;;
56005;SDS011;41888;44.696;10.522;2023-04-24T01:41:41;9.80;;;4.93;;
56005;SDS011;41888;44.696;10.522;2023-04-24T01:44:07;9.60;;;5.72;;
56005;SDS011;41888;44.696;10.522;2023-04-24T01:46:34;9.27;;;5.57;;
56005;SDS011;41888;44.696;10.522;2023-04-24T01:49:01;9.70;;;5.72;;
56005;SDS011;41888;44.696;10.522;2023-04-24T01:51:27;8.15;;;5.90;;
56005;SDS011;41888;44.696;10.522;2023-04-24T01:53:54;7.65;;;5.40;;
56005;SDS011;41888;44.696;10.522;2023-04-24T01:56:21;11.45;;;5.28;;
56005;SDS011;41888;44.696;10.522;2023-04-24T01:58:48;10.10;;;6.47;;
56005;SDS011;41888;44.696;10.522;2023-04-24T02:01:18;11.52;;;5.82;;
56005;SDS011;41888;44.696;10.522;2023-04-24T02:03:45;9.38;;;4.70;;
56005;SDS011;41888;44.696;10.522;2023-04-24T02:06:11;8.48;;;5.10;;
56005;SDS011;41888;44.696;10.522;2023-04-24T02:08:37;12.15;;;5.60;;
56005;SDS011;41888;44.696;10.522;2023-04-24T02:11:03;9.40;;;4.82;;
56005;SDS011;41888;44.696;10.522;2023-04-24T02:13:30;14.40;;;5.82;;
56005;SDS011;41888;44.696;10.522;2023-04-24T02:15:58;9.98;;;5.53;;
56005;SDS011;41888;44.696;10.522;2023-04-24T02:18:24;7.93;;;5.47;;
56005;SDS011;41888;44.696;10.522;2023-04-24T02:20:50;9.57;;;5.30;;
56005;SDS011;41888;44.696;10.522;2023-04-24T02:23:16;9.60;;;5.25;;
56005;SDS011;41888;44.696;10.522;2023-04-24T02:25:42;8.68;;;5.85;;
56005;SDS011;41888;44.696;10.522;2023-04-24T02:28:09;9.60;;;6.00;;
56005;SDS011;41888;44.696;10.522;2023-04-24T02:30:35;9.52;;;5.53;;
56005;SDS011;41888;44.696;10.522;2023-04-24T02:33:01;11.85;;;6.18;;
56005;SDS011;41888;44.696;10.522;2023-04-24T02:35:28;9.77;;;5.93;;
56005;SDS011;41888;44.696;10.522;2023-04-24T02:37:54;10.55;;;5.97;;
56005;SDS011;41888;44.696;10.522;2023-04-24T02:40:20;10.75;;;5.35;;
56005;SDS011;41888;44.696;10.522;2023-04-24T02:42:47;8.75;;;6.35;;
56005;SDS011;41888;44.696;10.522;2023-04-24T02:45:13;11.45;;;6.07;;
56005;SDS011;41888;44.696;10.522;2023-04-24T02:47:39;11.50;;;6.93;;
56005;SDS011;41888;44.696;10.522;2023-04-24T02:50:05;13.95;;;8.02;;
56005;SDS011;41888;44.696;10.522;2023-04-24T02:52:32;15.00;;;7.78;;
56005;SDS011;41888;44.696;10.522;2023-04-24T02:54:58;12.25;;;6.55;;
56005;SDS011;41888;44.696;10.522;2023-04-24T02:57:24;17.70;;;8.73;;
56005;SDS011;41888;44.696;10.522;2023-04-24T02:59:50;15.90;;;8.45;;
56005;SDS011;41888;44.696;10.522;2023-04-24T03:02:16;14.40;;;8.25;;
56005;SDS011;41888;44.696;10.522;2023-04-24T03:04:43;13.40;;;8.57;;
56005;SDS011;41888;44.696;10.522;2023-04-24T03:07:09;13.75;;;9.10;;
56005;SDS011;41888;44.696;10.522;2023-04-24T03:09:35;14.50;;;8.88;;
56005;SDS011;41888;44.696;10.522;2023-04-24T03:15:24;14.35;;;8.45;;
56005;SDS011;41888;44.696;10.522;2023-04-24T03:17:50;17.00;;;8.80;;
56005;SDS011;41888;44.696;10.522;2023-04-24T03:20:16;16.20;;;9.40;;
56005;SDS011;41888;44.696;10.522;2023-04-24T03:22:42;13.25;;;8.18;;
56005;SDS011;41888;44.696;10.522;2023-04-24T03:25:08;17.05;;;8.75;;
56005;SDS011;41888;44.696;10.522;2023-04-24T03:27:35;14.40;;;8.57;;
56005;SDS011;41888;44.696;10.522;2023-04-24T03:30:01;16.55;;;9.20;;
56005;SDS011;41888;44.696;10.522;2023-04-24T03:32:27;14.95;;;9.60;;
56005;SDS011;41888;44.696;10.522;2023-04-24T03:34:54;15.88;;;9.55;;
56005;SDS011;41888;44.696;10.522;2023-04-24T03:37:20;14.90;;;9.48;;
56005;SDS011;41888;44.696;10.522;2023-04-24T03:39:46;13.90;;;9.43;;
56005;SDS011;41888;44.696;10.522;2023-04-24T03:42:12;15.85;;;8.25;;
56005;SDS011;41888;44.696;10.522;2023-04-24T03:44:38;16.48;;;8.48;;
56005;SDS011;41888;44.696;10.522;2023-04-24T03:47:04;15.68;;;8.85;;
56005;SDS011;41888;44.696;10.522;2023-04-24T03:49:31;17.48;;;8.60;;
56005;SDS011;41888;44.696;10.522;2023-04-24T03:51:57;14.10;;;8.15;;
56005;SDS011;41888;44.696;10.522;2023-04-24T03:54:23;14.38;;;9.25;;
56005;SDS011;41888;44.696;10.522;2023-04-24T03:56:49;12.23;;;8.65;;
56005;SDS011;41888;44.696;10.522;2023-04-24T03:59:16;14.90;;;8.25;;
56005;SDS011;41888;44.696;10.522;2023-04-24T04:01:42;14.02;;;8.07;;
56005;SDS011;41888;44.696;10.522;2023-04-24T04:04:08;15.23;;;8.32;;
56005;SDS011;41888;44.696;10.522;2023-04-24T04:06:34;13.88;;;8.00;;
56005;SDS011;41888;44.696;10.522;2023-04-24T04:09:01;13.43;;;8.38;;
56005;SDS011;41888;44.696;10.522;2023-04-24T04:11:28;13.05;;;8.35;;
56005;SDS011;41888;44.696;10.522;2023-04-24T04:13:55;15.93;;;9.13;;
56005;SDS011;41888;44.696;10.522;2023-04-24T04:16:21;17.92;;;8.55;;
56005;SDS011;41888;44.696;10.522;2023-04-24T04:18:48;10.45;;;7.28;;
56005;SDS011;41888;44.696;10.522;2023-04-24T04:21:14;12.13;;;7.90;;
56005;SDS011;41888;44.696;10.522;2023-04-24T04:23:40;11.82;;;7.22;;
56005;SDS011;41888;44.696;10.522;2023-04-24T04:26:07;14.68;;;8.65;;
56005;SDS011;41888;44.696;10.522;2023-04-24T04:28:33;11.75;;;7.63;;
56005;SDS011;41888;44.696;10.522;2023-04-24T04:30:59;13.32;;;7.97;;
56005;SDS011;41888;44.696;10.522;2023-04-24T04:33:26;13.88;;;8.15;;
56005;SDS011;41888;44.696;10.522;2023-04-24T04:35:52;14.25;;;8.48;;
56005;SDS011;41888;44.696;10.522;2023-04-24T04:38:18;14.70;;;8.15;;
56005;SDS011;41888;44.696;10.522;2023-04-24T04:40:45;23.13;;;9.65;;
56005;SDS011;41888;44.696;10.522;2023-04-24T04:43:12;12.57;;;7.70;;
56005;SDS011;41888;44.696;10.522;2023-04-24T04:45:40;12.73;;;7.88;;
56005;SDS011;41888;44.696;10.522;2023-04-24T04:48:07;17.58;;;10.35;;
56005;SDS011;41888;44.696;10.522;2023-04-24T04:50:37;12.13;;;7.63;;
56005;SDS011;41888;44.696;10.522;2023-04-24T04:53:03;14.20;;;8.38;;
56005;SDS011;41888;44.696;10.522;2023-04-24T04:55:30;14.63;;;8.90;;
56005;SDS011;41888;44.696;10.522;2023-04-24T04:57:56;13.30;;;7.85;;
56005;SDS011;41888;44.696;10.522;2023-04-24T05:00:23;14.13;;;7.57;;
56005;SDS011;41888;44.696;10.522;2023-04-24T05:02:50;11.52;;;8.23;;
56005;SDS011;41888;44.696;10.522;2023-04-24T05:05:16;12.60;;;7.57;;
56005;SDS011;41888;44.696;10.522;2023-04-24T05:07:43;12.90;;;7.07;;
56005;SDS011;41888;44.696;10.522;2023-04-24T05:10:09;13.43;;;8.63;;
56005;SDS011;41888;44.696;10.522;2023-04-24T05:12:36;10.88;;;6.75;;
56005;SDS011;41888;44.696;10.522;2023-04-24T05:15:02;11.68;;;7.93;;
56005;SDS011;41888;44.696;10.522;2023-04-24T05:17:29;9.60;;;6.20;;
56005;SDS011;41888;44.696;10.522;2023-04-24T05:19:55;15.07;;;7.28;;
56005;SDS011;41888;44.696;10.522;2023-04-24T05:22:21;10.23;;;6.72;;
56005;SDS011;41888;44.696;10.522;2023-04-24T05:24:48;11.77;;;7.65;;
56005;SDS011;41888;44.696;10.522;2023-04-24T05:27:15;15.93;;;7.82;;
56005;SDS011;41888;44.696;10.522;2023-04-24T05:29:41;13.55;;;6.95;;
56005;SDS011;41888;44.696;10.522;2023-04-24T05:32:07;11.43;;;6.80;;
56005;SDS011;41888;44.696;10.522;2023-04-24T05:34:33;12.02;;;7.25;;
56005;SDS011;41888;44.696;10.522;2023-04-24T05:36:59;9.93;;;6.13;;
56005;SDS011;41888;44.696;10.522;2023-04-24T05:39:26;10.93;;;6.38;;
56005;SDS011;41888;44.696;10.522;2023-04-24T05:41:52;7.82;;;5.13;;
56005;SDS011;41888;44.696;10.522;2023-04-24T05:44:18;9.65;;;5.28;;
56005;SDS011;41888;44.696;10.522;2023-04-24T05:46:44;10.50;;;7.05;;
56005;SDS011;41888;44.696;10.522;2023-04-24T05:49:10;9.40;;;5.63;;
56005;SDS011;41888;44.696;10.522;2023-04-24T05:51:37;11.70;;;5.70;;
56005;SDS011;41888;44.696;10.522;2023-04-24T05:54:04;10.02;;;5.97;;
56005;SDS011;41888;44.696;10.522;2023-04-24T05:56:30;7.82;;;5.38;;
56005;SDS011;41888;44.696;10.522;2023-04-24T05:58:56;9.48;;;5.38;;
56005;SDS011;41888;44.696;10.522;2023-04-24T06:01:22;9.25;;;5.00;;
56005;SDS011;41888;44.696;10.522;2023-04-24T06:03:50;13.55;;;5.28;;
56005;SDS011;41888;44.696;10.522;2023-04-24T06:06:16;8.73;;;4.82;;
56005;SDS011;41888;44.696;10.522;2023-04-24T06:08:42;11.40;;;5.85;;
56005;SDS011;41888;44.696;10.522;2023-04-24T06:11:09;10.13;;;5.85;;
56005;SDS011;41888;44.696;10.522;2023-04-24T06:13:35;9.02;;;5.03;;
56005;SDS011;41888;44.696;10.522;2023-04-24T06:16:01;8.70;;;5.80;;
56005;SDS011;41888;44.696;10.522;2023-04-24T06:18:27;6.90;;;4.78;;
56005;SDS011;41888;44.696;10.522;2023-04-24T06:20:54;9.98;;;4.85;;
56005;SDS011;41888;44.696;10.522;2023-04-24T06:23:20;12.20;;;4.78;;
56005;SDS011;41888;44.696;10.522;2023-04-24T06:25:46;13.23;;;5.13;;
56005;SDS011;41888;44.696;10.522;2023-04-24T06:28:12;9.73;;;4.85;;
56005;SDS011;41888;44.696;10.522;2023-04-24T06:30:39;9.95;;;5.57;;
56005;SDS011;41888;44.696;10.522;2023-04-24T06:33:06;8.63;;;4.65;;
56005;SDS011;41888;44.696;10.522;2023-04-24T06:35:32;7.85;;;4.65;;
56005;SDS011;41888;44.696;10.522;2023-04-24T06:37:58;5.30;;;4.25;;
56005;SDS011;41888;44.696;10.522;2023-04-24T06:40:24;10.30;;;4.47;;
56005;SDS011;41888;44.696;10.522;2023-04-24T06:42:51;10.43;;;4.75;;
56005;SDS011;41888;44.696;10.522;2023-04-24T06:45:17;7.85;;;4.80;;
56005;SDS011;41888;44.696;10.522;2023-04-24T06:47:43;11.45;;;5.78;;
56005;SDS011;41888;44.696;10.522;2023-04-24T06:50:09;9.50;;;5.07;;
56005;SDS011;41888;44.696;10.522;2023-04-24T06:52:36;8.88;;;4.15;;
56005;SDS011;41888;44.696;10.522;2023-04-24T06:55:03;7.35;;;4.88;;
56005;SDS011;41888;44.696;10.522;2023-04-24T06:57:30;10.70;;;5.05;;
56005;SDS011;41888;44.696;10.522;2023-04-24T06:59:57;7.80;;;4.65;;
56005;SDS011;41888;44.696;10.522;2023-04-24T07:02:23;9.10;;;5.15;;
56005;SDS011;41888;44.696;10.522;2023-04-24T07:04:49;9.52;;;5.55;;
56005;SDS011;41888;44.696;10.522;2023-04-24T07:07:16;7.20;;;4.70;;
56005;SDS011;41888;44.696;10.522;2023-04-24T07:09:42;9.20;;;5.97;;
56005;SDS011;41888;44.696;10.522;2023-04-24T07:12:09;8.02;;;5.60;;
56005;SDS011;41888;44.696;10.522;2023-04-24T07:14:35;10.02;;;5.40;;
56005;SDS011;41888;44.696;10.522;2023-04-24T07:17:03;9.30;;;6.10;;
56005;SDS011;41888;44.696;10.522;2023-04-24T07:19:29;8.82;;;6.25;;
56005;SDS011;41888;44.696;10.522;2023-04-24T07:21:55;6.68;;;4.97;;
56005;SDS011;41888;44.696;10.522;2023-04-24T07:24:23;16.33;;;6.82;;
56005;SDS011;41888;44.696;10.522;2023-04-24T07:26:50;9.43;;;5.72;;
56005;SDS011;41888;44.696;10.522;2023-04-24T07:29:17;6.57;;;4.90;;
56005;SDS011;41888;44.696;10.522;2023-04-24T07:31:44;7.55;;;4.85;;
56005;SDS011;41888;44.696;10.522;2023-04-24T07:34:11;7.15;;;5.03;;
56005;SDS011;41888;44.696;10.522;2023-04-24T07:36:37;8.75;;;5.43;;
56005;SDS011;41888;44.696;10.522;2023-04-24T07:39:04;7.63;;;4.45;;
56005;SDS011;41888;44.696;10.522;2023-04-24T07:41:30;9.00;;;3.70;;
56005;SDS011;41888;44.696;10.522;2023-04-24T07:43:57;6.43;;;3.90;;
56005;SDS011;41888;44.696;10.522;2023-04-24T07:46:24;9.43;;;4.45;;
56005;SDS011;41888;44.696;10.522;2023-04-24T07:48:50;7.32;;;3.97;;
56005;SDS011;41888;44.696;10.522;2023-04-24T07:51:16;6.15;;;3.83;;
56005;SDS011;41888;44.696;10.522;2023-04-24T07:53:43;5.95;;;4.15;;
56005;SDS011;41888;44.696;10.522;2023-04-24T07:56:09;9.07;;;4.35;;
56005;SDS011;41888;44.696;10.522;2023-04-24T07:58:35;8.60;;;4.57;;
56005;SDS011;41888;44.696;10.522;2023-04-24T08:01:02;5.10;;;3.17;;
56005;SDS011;41888;44.696;10.522;2023-04-24T08:03:28;7.32;;;4.13;;
56005;SDS011;41888;44.696;10.522;2023-04-24T08:05:54;7.97;;;4.13;;
56005;SDS011;41888;44.696;10.522;2023-04-24T08:08:21;6.75;;;4.53;;
56005;SDS011;41888;44.696;10.522;2023-04-24T08:10:48;7.65;;;3.88;;
56005;SDS011;41888;44.696;10.522;2023-04-24T08:13:15;7.78;;;3.92;;
56005;SDS011;41888;44.696;10.522;2023-04-24T08:15:41;4.40;;;2.97;;
56005;SDS011;41888;44.696;10.522;2023-04-24T08:18:07;3.70;;;2.88;;
56005;SDS011;41888;44.696;10.522;2023-04-24T08:20:36;5.72;;;3.17;;
56005;SDS011;41888;44.696;10.522;2023-04-24T08:23:03;5.90;;;3.13;;
56005;SDS011;41888;44.696;10.522;2023-04-24T08:25:29;5.10;;;3.03;;
56005;SDS011;41888;44.696;10.522;2023-04-24T08:27:55;7.53;;;3.65;;
56005;SDS011;41888;44.696;10.522;2023-04-24T08:30:21;6.95;;;3.15;;
56005;SDS011;41888;44.696;10.522;2023-04-24T08:32:48;4.60;;;3.20;;
56005;SDS011;41888;44.696;10.522;2023-04-24T08:35:14;5.80;;;3.45;;
56005;SDS011;41888;44.696;10.522;2023-04-24T08:37:40;7.25;;;3.85;;
56005;SDS011;41888;44.696;10.522;2023-04-24T08:40:10;4.82;;;3.20;;
56005;SDS011;41888;44.696;10.522;2023-04-24T08:42:42;6.75;;;3.10;;
56005;SDS011;41888;44.696;10.522;2023-04-24T08:45:09;5.10;;;3.47;;
56005;SDS011;41888;44.696;10.522;2023-04-24T08:47:38;9.65;;;4.13;;
56005;SDS011;41888;44.696;10.522;2023-04-24T08:50:05;7.93;;;4.32;;
56005;SDS011;41888;44.696;10.522;2023-04-24T08:52:33;6.63;;;4.53;;
56005;SDS011;41888;44.696;10.522;2023-04-24T08:54:59;6.65;;;4.30;;
56005;SDS011;41888;44.696;10.522;2023-04-24T08:57:26;8.05;;;4.57;;
56005;SDS011;41888;44.696;10.522;2023-04-24T08:59:54;6.45;;;3.67;;
56005;SDS011;41888;44.696;10.522;2023-04-24T09:02:21;5.95;;;3.72;;
56005;SDS011;41888;44.696;10.522;2023-04-24T09:04:48;5.85;;;3.55;;
56005;SDS011;41888;44.696;10.522;2023-04-24T09:07:16;6.00;;;4.10;;
56005;SDS011;41888;44.696;10.522;2023-04-24T09:09:43;9.38;;;3.88;;
56005;SDS011;41888;44.696;10.522;2023-04-24T09:12:10;11.75;;;4.22;;
56005;SDS011;41888;44.696;10.522;2023-04-24T09:14:36;7.13;;;3.55;;
56005;SDS011;41888;44.696;10.522;2023-04-24T09:17:07;6.93;;;4.03;;
56005;SDS011;41888;44.696;10.522;2023-04-24T09:19:33;6.35;;;3.80;;
56005;SDS011;41888;44.696;10.522;2023-04-24T09:22:00;8.32;;;4.03;;
56005;SDS011;41888;44.696;10.522;2023-04-24T09:24:31;7.25;;;4.38;;
56005;SDS011;41888;44.696;10.522;2023-04-24T09:26:58;7.10;;;4.30;;
56005;SDS011;41888;44.696;10.522;2023-04-24T09:29:28;6.47;;;3.53;;
56005;SDS011;41888;44.696;10.522;2023-04-24T09:31:56;7.43;;;3.60;;
56005;SDS011;41888;44.696;10.522;2023-04-24T09:34:23;7.70;;;3.92;;
56005;SDS011;41888;44.696;10.522;2023-04-24T09:36:53;6.72;;;3.67;;
56005;SDS011;41888;44.696;10.522;2023-04-24T09:39:20;7.55;;;3.65;;
56005;SDS011;41888;44.696;10.522;2023-04-24T09:41:48;4.97;;;3.83;;
56005;SDS011;41888;44.696;10.522;2023-04-24T09:44:18;6.85;;;3.58;;
56005;SDS011;41888;44.696;10.522;2023-04-24T09:46:50;5.30;;;3.40;;
56005;SDS011;41888;44.696;10.522;2023-04-24T09:51:51;7.13;;;2.80;;
56005;SDS011;41888;44.696;10.522;2023-04-24T09:54:28;7.10;;;3.97;;
56005;SDS011;41888;44.696;10.522;2023-04-24T09:56:54;4.93;;;2.97;;
56005;SDS011;41888;44.696;10.522;2023-04-24T09:59:21;7.10;;;3.22;;
56005;SDS011;41888;44.696;10.522;2023-04-24T10:01:48;5.60;;;3.65;;
56005;SDS011;41888;44.696;10.522;2023-04-24T10:04:25;9.50;;;3.83;;
56005;SDS011;41888;44.696;10.522;2023-04-24T10:06:54;7.43;;;3.53;;
56005;SDS011;41888;44.696;10.522;2023-04-24T10:09:24;6.20;;;3.45;;
56005;SDS011;41888;44.696;10.522;2023-04-24T10:11:53;5.05;;;3.78;;
56005;SDS011;41888;44.696;10.522;2023-04-24T10:14:21;6.30;;;3.72;;
56005;SDS011;41888;44.696;10.522;2023-04-24T10:16:49;6.25;;;3.53;;
56005;SDS011;41888;44.696;10.522;2023-04-24T10:19:18;4.75;;;3.38;;
56005;SDS011;41888;44.696;10.522;2023-04-24T10:21:45;6.72;;;3.38;;
56005;SDS011;41888;44.696;10.522;2023-04-24T10:24:18;4.47;;;2.75;;
56005;SDS011;41888;44.696;10.522;2023-04-24T10:26:47;4.82;;;2.03;;
56005;SDS011;41888;44.696;10.522;2023-04-24T10:29:14;5.30;;;3.17;;
56005;SDS011;41888;44.696;10.522;2023-04-24T10:31:42;7.22;;;3.30;;
56005;SDS011;41888;44.696;10.522;2023-04-24T10:34:11;5.05;;;3.30;;
56005;SDS011;41888;44.696;10.522;2023-04-24T10:36:40;5.68;;;3.33;;
56005;SDS011;41888;44.696;10.522;2023-04-24T10:39:11;5.55;;;3.40;;
56005;SDS011;41888;44.696;10.522;2023-04-24T10:41:40;4.78;;;2.33;;
56005;SDS011;41888;44.696;10.522;2023-04-24T10:44:10;3.78;;;2.30;;
56005;SDS011;41888;44.696;10.522;2023-04-24T10:46:38;4.57;;;2.40;;
56005;SDS011;41888;44.696;10.522;2023-04-24T10:49:08;3.67;;;2.58;;
56005;SDS011;41888;44.696;10.522;2023-04-24T10:54:21;5.18;;;2.67;;
56005;SDS011;41888;44.696;10.522;2023-04-24T10:56:52;4.60;;;3.08;;
56005;SDS011;41888;44.696;10.522;2023-04-24T10:59:38;3.50;;;2.17;;
56005;SDS011;41888;44.696;10.522;2023-04-24T11:02:04;3.70;;;2.20;;
56005;SDS011;41888;44.696;10.522;2023-04-24T11:04:33;5.13;;;2.45;;
56005;SDS011;41888;44.696;10.522;2023-04-24T11:07:02;4.70;;;2.50;;
56005;SDS011;41888;44.696;10.522;2023-04-24T11:09:32;5.70;;;2.47;;
56005;SDS011;41888;44.696;10.522;2023-04-24T11:12:06;5.53;;;2.60;;
56005;SDS011;41888;44.696;10.522;2023-04-24T11:17:33;3.78;;;2.63;;
56005;SDS011;41888;44.696;10.522;2023-04-24T11:20:15;3.40;;;2.53;;
56005;SDS011;41888;44.696;10.522;2023-04-24T11:22:42;2.60;;;1.90;;
56005;SDS011;41888;44.696;10.522;2023-04-24T11:25:09;3.55;;;2.22;;
56005;SDS011;41888;44.696;10.522;2023-04-24T11:27:41;5.13;;;2.80;;
56005;SDS011;41888;44.696;10.522;2023-04-24T11:30:09;3.00;;;2.33;;
56005;SDS011;41888;44.696;10.522;2023-04-24T11:32:36;3.55;;;2.05;;
56005;SDS011;41888;44.696;10.522;2023-04-24T11:35:08;3.50;;;2.30;;
56005;SDS011;41888;44.696;10.522;2023-04-24T11:37:44;4.30;;;2.50;;
56005;SDS011;41888;44.696;10.522;2023-04-24T11:40:14;4.20;;;3.10;;
56005;SDS011;41888;44.696;10.522;2023-04-24T11:42:45;4.13;;;3.38;;
56005;SDS011;41888;44.696;10.522;2023-04-24T11:45:12;4.43;;;3.53;;
56005;SDS011;41888;44.696;10.522;2023-04-24T11:47:41;4.72;;;3.35;;
56005;SDS011;41888;44.696;10.522;2023-04-24T11:50:08;5.93;;;3.53;;
56005;SDS011;41888;44.696;10.522;2023-04-24T11:52:46;4.45;;;3.05;;
56005;SDS011;41888;44.696;10.522;2023-04-24T11:57:41;4.32;;;2.88;;
56005;SDS011;41888;44.696;10.522;2023-04-24T12:00:14;6.15;;;2.65;;
56005;SDS011;41888;44.696;10.522;2023-04-24T12:02:42;7.57;;;3.17;;
56005;SDS011;41888;44.696;10.522;2023-04-24T12:05:08;3.40;;;2.70;;
56005;SDS011;41888;44.696;10.522;2023-04-24T12:07:44;5.68;;;3.00;;
56005;SDS011;41888;44.696;10.522;2023-04-24T12:10:10;3.80;;;2.90;;
56005;SDS011;41888;44.696;10.522;2023-04-24T12:12:36;5.43;;;3.08;;
56005;SDS011;41888;44.696;10.522;2023-04-24T12:15:07;6.00;;;2.47;;
56005;SDS011;41888;44.696;10.522;2023-04-24T12:17:34;3.83;;;2.78;;
56005;SDS011;41888;44.696;10.522;2023-04-24T12:20:04;3.78;;;2.78;;
56005;SDS011;41888;44.696;10.522;2023-04-24T12:22:51;4.00;;;2.80;;
56005;SDS011;41888;44.696;10.522;2023-04-24T12:25:20;6.65;;;3.22;;
56005;SDS011;41888;44.696;10.522;2023-04-24T12:27:52;3.55;;;3.20;;
56005;SDS011;41888;44.696;10.522;2023-04-24T12:30:40;4.68;;;3.28;;
56005;SDS011;41888;44.696;10.522;2023-04-24T12:33:06;4.07;;;2.97;;
56005;SDS011;41888;44.696;10.522;2023-04-24T12:35:32;3.60;;;2.88;;
56005;SDS011;41888;44.696;10.522;2023-04-24T12:38:07;5.20;;;2.80;;
56005;SDS011;41888;44.696;10.522;2023-04-24T12:40:34;3.65;;;2.78;;
56005;SDS011;41888;44.696;10.522;2023-04-24T12:43:01;3.75;;;2.70;;
56005;SDS011;41888;44.696;10.522;2023-04-24T12:45:27;3.80;;;2.85;;
56005;SDS011;41888;44.696;10.522;2023-04-24T12:47:53;5.07;;;2.92;;
56005;SDS011;41888;44.696;10.522;2023-04-24T12:50:20;3.50;;;2.33;;
56005;SDS011;41888;44.696;10.522;2023-04-24T12:52:46;3.53;;;2.65;;
56005;SDS011;41888;44.696;10.522;2023-04-24T12:55:12;3.70;;;2.55;;
56005;SDS011;41888;44.696;10.522;2023-04-24T12:57:39;3.95;;;2.65;;
56005;SDS011;41888;44.696;10.522;2023-04-24T13:00:06;4.82;;;2.95;;
56005;SDS011;41888;44.696;10.522;2023-04-24T13:02:33;5.15;;;3.38;;
56005;SDS011;41888;44.696;10.522;2023-04-24T13:05:00;5.35;;;3.53;;
56005;SDS011;41888;44.696;10.522;2023-04-24T13:07:27;4.93;;;2.97;;
56005;SDS011;41888;44.696;10.522;2023-04-24T13:09:54;6.00;;;3.30;;
56005;SDS011;41888;44.696;10.522;2023-04-24T13:12:22;3.58;;;2.63;;
56005;SDS011;41888;44.696;10.522;2023-04-24T13:14:49;3.78;;;2.45;;
56005;SDS011;41888;44.696;10.522;2023-04-24T13:17:15;3.75;;;2.78;;
56005;SDS011;41888;44.696;10.522;2023-04-24T13:19:42;3.20;;;2.35;;
56005;SDS011;41888;44.696;10.522;2023-04-24T13:22:10;4.18;;;2.80;;
56005;SDS011;41888;44.696;10.522;2023-04-24T13:24:37;4.15;;;2.88;;
56005;SDS011;41888;44.696;10.522;2023-04-24T13:27:05;4.60;;;2.30;;
56005;SDS011;41888;44.696;10.522;2023-04-24T13:29:32;4.32;;;3.20;;
56005;SDS011;41888;44.696;10.522;2023-04-24T13:31:58;4.20;;;3.33;;
56005;SDS011;41888;44.696;10.522;2023-04-24T13:34:25;3.95;;;2.80;;
56005;SDS011;41888;44.696;10.522;2023-04-24T13:36:52;5.55;;;3.58;;
56005;SDS011;41888;44.696;10.522;2023-04-24T13:39:20;5.05;;;3.10;;
56005;SDS011;41888;44.696;10.522;2023-04-24T13:41:46;3.78;;;2.90;;
56005;SDS011;41888;44.696;10.522;2023-04-24T13:44:14;4.18;;;2.92;;
56005;SDS011;41888;44.696;10.522;2023-04-24T13:46:44;5.07;;;2.83;;
56005;SDS011;41888;44.696;10.522;2023-04-24T13:49:15;4.22;;;3.00;;
56005;SDS011;41888;44.696;10.522;2023-04-24T13:51:41;5.00;;;3.17;;
56005;SDS011;41888;44.696;10.522;2023-04-24T13:54:08;3.63;;;2.72;;
56005;SDS011;41888;44.696;10.522;2023-04-24T13:56:34;3.67;;;2.53;;
56005;SDS011;41888;44.696;10.522;2023-04-24T13:59:01;4.05;;;2.40;;
56005;SDS011;41888;44.696;10.522;2023-04-24T14:01:27;3.75;;;2.75;;
56005;SDS011;41888;44.696;10.522;2023-04-24T14:03:54;4.47;;;2.90;;
56005;SDS011;41888;44.696;10.522;2023-04-24T14:06:21;4.22;;;2.47;;
56005;SDS011;41888;44.696;10.522;2023-04-24T14:08:48;4.20;;;2.50;;
56005;SDS011;41888;44.696;10.522;2023-04-24T14:11:15;4.80;;;2.80;;
56005;SDS011;41888;44.696;10.522;2023-04-24T14:13:42;4.22;;;2.88;;
56005;SDS011;41888;44.696;10.522;2023-04-24T14:16:09;5.97;;;3.35;;
56005;SDS011;41888;44.696;10.522;2023-04-24T14:18:36;3.88;;;2.80;;
56005;SDS011;41888;44.696;10.522;2023-04-24T14:21:05;1.67;;;1.10;;
56005;SDS011;41888;44.696;10.522;2023-04-24T14:23:31;3.67;;;1.80;;
56005;SDS011;41888;44.696;10.522;2023-04-24T14:25:58;3.67;;;1.80;;
56005;SDS011;41888;44.696;10.522;2023-04-24T14:28:24;3.00;;;0.90;;
56005;SDS011;41888;44.696;10.522;2023-04-24T14:30:51;0.90;;;0.60;;
56005;SDS011;41888;44.696;10.522;2023-04-24T14:33:17;3.70;;;0.50;;
56005;SDS011;41888;44.696;10.522;2023-04-24T14:35:44;3.55;;;1.02;;
56005;SDS011;41888;44.696;10.522;2023-04-24T14:38:10;2.83;;;0.40;;
56005;SDS011;41888;44.696;10.522;2023-04-24T14:40:37;0.60;;;0.30;;
56005;SDS011;41888;44.696;10.522;2023-04-24T14:43:03;1.10;;;0.70;;
56005;SDS011;41888;44.696;10.522;2023-04-24T14:45:30;0.90;;;0.40;;